createdAt,value
2018-08-06T17:21:33.298Z,29.90
2018-08-06T17:24:08.755Z,29.80
2018-08-06T17:26:43.983Z,29.10
2018-08-06T17:29:22.555Z,29.80
2018-08-06T17:31:58.967Z,30.30
2018-08-06T17:34:34.331Z,30.00
2018-08-06T17:37:08.607Z,30.50
2018-08-06T17:39:44.267Z,30.90
2018-08-06T17:42:17.500Z,30.30
2018-08-06T17:44:51.966Z,29.80
2018-08-06T17:47:24.563Z,29.90
2018-08-06T17:49:57.657Z,30.30
2018-08-06T17:52:31.751Z,30.70
2018-08-06T17:55:04.680Z,30.80
2018-08-06T17:57:37.150Z,31.30
2018-08-06T18:00:11.429Z,31.00
2018-08-06T18:02:46.138Z,29.80
2018-08-06T18:05:19.638Z,29.60
2018-08-06T18:07:53.733Z,30.40
2018-08-06T18:10:29.134Z,30.00
2018-08-06T18:13:01.445Z,30.10
2018-08-06T18:15:34.155Z,28.60
2018-08-06T18:18:07.858Z,28.40
2018-08-06T18:20:41.585Z,28.70
2018-08-06T18:23:14.419Z,29.60
2018-08-06T18:25:48.189Z,30.00
2018-08-06T18:28:22.099Z,30.50
2018-08-06T18:30:55.955Z,30.10
2018-08-06T18:33:28.757Z,30.20
2018-08-06T18:36:02.444Z,30.30
2018-08-06T18:38:35.509Z,30.70
2018-08-06T18:41:09.633Z,30.80
2018-08-06T18:43:42.493Z,30.10
2018-08-06T18:46:15.239Z,29.30
2018-08-06T18:48:48.041Z,28.90
2018-08-06T18:51:22.728Z,28.30
2018-08-06T18:53:55.170Z,28.20
2018-08-06T18:56:28.594Z,28.80
2018-08-06T18:59:01.320Z,29.70
2018-08-06T19:01:34.079Z,30.30
2018-08-06T19:04:06.316Z,30.70
2018-08-06T19:06:38.741Z,30.20
2018-08-06T19:09:18.482Z,29.10
2018-08-06T19:11:50.630Z,27.70
2018-08-06T19:14:25.506Z,26.70
2018-08-06T19:16:57.621Z,26.50
2018-08-06T19:19:31.708Z,26.70
2018-08-06T19:24:41.960Z,28.70
2018-08-06T19:29:46.986Z,29.60
2018-08-06T19:32:19.084Z,29.80
2018-08-06T19:34:51.758Z,29.70
2018-08-06T19:37:28.602Z,29.50
2018-08-06T19:40:02.162Z,29.20
2018-08-06T19:42:39.892Z,28.90
2018-08-06T19:45:12.994Z,29.30
2018-08-06T19:47:45.641Z,29.30
2018-08-06T19:50:23.087Z,29.90
2018-08-06T19:52:56.979Z,30.40
2018-08-06T19:55:34.507Z,31.20
2018-08-06T19:58:07.577Z,30.80
2018-08-06T20:00:40.845Z,30.70
2018-08-06T20:03:13.537Z,30.80
2018-08-06T20:05:47.733Z,30.70
2018-08-06T20:08:20.835Z,29.90
2018-08-06T20:10:54.428Z,29.30
2018-08-06T20:13:28.388Z,29.00
2018-08-06T20:16:02.435Z,28.60
2018-08-06T20:18:36.865Z,28.30
2018-08-06T20:21:11.237Z,28.20
2018-08-06T20:23:44.830Z,28.10
2018-08-06T20:26:18.185Z,28.60
2018-08-06T20:28:51.416Z,28.30
2018-08-06T20:31:24.205Z,28.50
2018-08-06T20:33:57.043Z,28.40
2018-08-06T20:36:29.782Z,28.40
2018-08-06T20:39:02.516Z,28.30
2018-08-06T20:41:36.831Z,28.30
2018-08-06T20:44:12.099Z,28.00
2018-08-06T20:46:45.577Z,27.60
2018-08-06T20:49:18.234Z,27.30
2018-08-06T20:51:52.084Z,27.20
2018-08-06T20:54:26.896Z,27.30
2018-08-06T20:57:00.807Z,27.50
2018-08-06T20:59:34.131Z,27.10
2018-08-06T21:02:10.295Z,26.90
2018-08-06T21:04:43.080Z,26.50
2018-08-06T21:07:19.154Z,26.50
2018-08-06T21:09:51.934Z,26.60
2018-08-06T21:12:26.059Z,26.80
2018-08-06T21:14:59.258Z,27.00
2018-08-06T21:17:32.953Z,27.00
2018-08-06T21:20:09.185Z,27.10
2018-08-06T21:22:42.542Z,27.00
2018-08-06T21:25:15.574Z,27.30
2018-08-06T21:27:51.065Z,27.60
2018-08-06T21:30:24.126Z,27.60
2018-08-06T21:32:59.145Z,27.70
2018-08-06T21:35:32.236Z,27.60
2018-08-06T21:38:05.639Z,27.70
2018-08-06T21:40:38.960Z,27.60
2018-08-06T21:43:12.526Z,27.10
2018-08-06T21:45:45.647Z,26.90
2018-08-06T21:48:18.313Z,26.80
2018-08-06T21:50:50.397Z,26.60
2018-08-06T21:53:23.009Z,26.20
2018-08-06T21:55:56.523Z,26.10
2018-08-06T21:58:30.244Z,26.30
2018-08-06T22:01:02.916Z,26.30
2018-08-06T22:03:35.705Z,26.30
2018-08-06T22:06:10.319Z,26.50
2018-08-06T22:08:42.529Z,26.60
2018-08-06T22:11:15.477Z,26.80
2018-08-06T22:13:47.895Z,27.50
2018-08-06T22:16:20.609Z,27.70
2018-08-06T22:18:52.868Z,27.80
2018-08-06T22:21:25.405Z,27.90
2018-08-06T22:23:58.075Z,28.00
2018-08-06T22:26:30.655Z,28.10
2018-08-06T22:29:03.464Z,28.10
2018-08-06T22:31:35.770Z,27.70
2018-08-06T22:34:07.986Z,26.80
2018-08-06T22:36:39.941Z,26.20
2018-08-06T22:39:13.820Z,25.90
2018-08-06T22:41:46.396Z,25.60
2018-08-06T22:44:18.795Z,25.30
2018-08-06T22:46:51.482Z,25.10
2018-08-06T22:49:25.554Z,24.80
2018-08-06T22:51:57.846Z,24.60
2018-08-06T22:54:30.724Z,24.30
2018-08-06T22:57:03.405Z,24.20
2018-08-06T22:59:36.428Z,24.10
2018-08-06T23:02:08.558Z,24.00
2018-08-06T23:04:41.644Z,24.00
